createdAt,value
2022-11-17T00:00:45.073Z,9.65
2022-11-17T00:03:20.619Z,9.67
2022-11-17T00:05:47.429Z,9.42
2022-11-17T00:08:14.230Z,9.67
2022-11-17T00:10:43.738Z,9.53
2022-11-17T00:13:29.679Z,9.30
2022-11-17T00:15:58.618Z,9.50
2022-11-17T00:18:43.696Z,9.51
2022-11-17T00:21:23.755Z,9.67
2022-11-17T00:23:50.999Z,9.58
2022-11-17T00:26:23.535Z,9.63
2022-11-17T00:29:01.579Z,9.57
2022-11-17T00:31:49.010Z,9.68
2022-11-17T00:34:22.602Z,9.61
2022-11-17T00:36:53.949Z,9.59
2022-11-17T00:39:22.765Z,9.25
2022-11-17T00:41:55.799Z,9.40
2022-11-17T00:44:26.359Z,9.35
2022-11-17T00:46:56.460Z,9.29
2022-11-17T00:49:26.549Z,9.39
2022-11-17T00:51:54.348Z,9.57
2022-11-17T00:54:26.568Z,9.44
2022-11-17T00:56:54.817Z,9.35
2022-11-17T00:59:21.746Z,9.69
2022-11-17T01:01:51.132Z,9.29
2022-11-17T01:04:20.622Z,9.49
2022-11-17T01:06:51.221Z,9.52
2022-11-17T01:09:20.166Z,9.61
2022-11-17T01:11:50.999Z,9.44
2022-11-17T01:14:20.501Z,9.59
2022-11-17T01:16:47.371Z,9.36
2022-11-17T01:19:15.329Z,9.52
2022-11-17T01:21:42.976Z,9.36
2022-11-17T01:24:11.513Z,9.32
2022-11-17T01:26:39.508Z,9.44
2022-11-17T01:29:13.003Z,9.60
2022-11-17T01:31:45.518Z,9.63
2022-11-17T01:34:12.892Z,9.58
2022-11-17T01:37:00.551Z,9.43
2022-11-17T01:39:29.385Z,9.32
2022-11-17T01:41:56.943Z,9.34
2022-11-17T01:44:42.061Z,9.63
2022-11-17T01:47:24.191Z,9.46
2022-11-17T01:49:56.254Z,9.65
2022-11-17T01:52:24.856Z,9.42
2022-11-17T01:54:54.290Z,9.48
2022-11-17T01:57:45.570Z,9.41
2022-11-17T02:00:16.703Z,9.63
2022-11-17T02:02:45.656Z,9.60
2022-11-17T02:05:43.637Z,9.33
2022-11-17T02:08:12.194Z,9.69
2022-11-17T02:10:45.894Z,9.56
2022-11-17T02:13:17.841Z,9.69
2022-11-17T02:15:44.687Z,9.60
2022-11-17T02:18:11.907Z,9.73
2022-11-17T02:20:52.005Z,9.74
2022-11-17T02:23:29.169Z,9.80
2022-11-17T02:26:04.821Z,9.79
2022-11-17T02:28:43.433Z,9.76
2022-11-17T02:31:09.972Z,9.86
2022-11-17T02:33:42.559Z,9.88
2022-11-17T02:36:16.775Z,9.81
2022-11-17T02:39:20.050Z,9.83
2022-11-17T02:42:02.972Z,9.88
2022-11-17T02:44:58.877Z,9.84
2022-11-17T02:47:33.027Z,9.61
2022-11-17T02:50:05.821Z,9.71
2022-11-17T02:52:32.828Z,9.76
2022-11-17T02:55:06.280Z,9.87
2022-11-17T02:57:34.814Z,9.88
2022-11-17T03:00:16.960Z,9.84
2022-11-17T03:03:06.437Z,9.80
2022-11-17T03:05:51.877Z,9.81
2022-11-17T03:08:33.513Z,9.75
2022-11-17T03:11:02.775Z,9.81
2022-11-17T03:14:14.520Z,9.92
2022-11-17T03:17:14.309Z,9.87
2022-11-17T03:20:13.707Z,9.66
2022-11-17T03:22:50.186Z,9.95
2022-11-17T03:25:21.775Z,9.91
2022-11-17T03:27:53.139Z,9.90
2022-11-17T03:30:25.286Z,9.97
2022-11-17T03:33:02.343Z,9.97
2022-11-17T03:35:31.375Z,9.94
2022-11-17T03:38:07.228Z,10.03
2022-11-17T03:40:37.111Z,9.92
2022-11-17T03:43:08.163Z,10.02
2022-11-17T03:45:39.402Z,9.69
2022-11-17T03:48:36.135Z,9.96
2022-11-17T03:51:54.163Z,9.78
2022-11-17T03:54:24.294Z,9.83
2022-11-17T03:56:57.987Z,10.01
2022-11-17T03:59:43.351Z,10.04
2022-11-17T04:02:18.863Z,9.92
2022-11-17T04:05:04.112Z,9.96
2022-11-17T04:07:30.833Z,10.05
2022-11-17T04:09:57.691Z,10.02
2022-11-17T04:12:42.841Z,10.02
2022-11-17T04:15:29.673Z,10.04
2022-11-17T04:17:57.097Z,10.06
2022-11-17T04:20:23.974Z,9.93
2022-11-17T04:23:07.204Z,10.00
2022-11-17T04:26:00.869Z,9.98
2022-11-17T04:28:38.066Z,9.97
2022-11-17T04:31:19.970Z,9.99
2022-11-17T04:33:48.914Z,9.98
2022-11-17T04:36:18.940Z,10.02
2022-11-17T04:38:50.719Z,10.00
2022-11-17T04:41:37.446Z,10.01
2022-11-17T04:44:06.049Z,10.04
2022-11-17T04:46:34.257Z,9.98
2022-11-17T04:49:01.289Z,10.17
2022-11-17T04:51:29.458Z,10.03
2022-11-17T04:53:56.686Z,10.04
2022-11-17T04:56:24.766Z,10.12
2022-11-17T04:58:52.336Z,10.04
2022-11-17T05:01:22.869Z,10.02
2022-11-17T05:03:54.706Z,10.19
2022-11-17T05:06:32.194Z,10.19
2022-11-17T05:09:03.070Z,10.09
2022-11-17T05:11:49.953Z,10.16
2022-11-17T05:14:20.069Z,10.19
2022-11-17T05:17:09.908Z,10.18
2022-11-17T05:19:44.436Z,10.12
2022-11-17T05:22:40.953Z,10.22
2022-11-17T05:25:08.886Z,10.08
2022-11-17T05:27:38.445Z,10.17
2022-11-17T05:30:09.368Z,10.12
2022-11-17T05:32:36.192Z,10.16
2022-11-17T05:35:04.501Z,10.04
2022-11-17T05:37:31.228Z,10.23
2022-11-17T05:39:58.258Z,10.10
2022-11-17T05:42:25.020Z,10.03
2022-11-17T05:44:51.854Z,10.24
2022-11-17T05:47:21.025Z,10.22
2022-11-17T05:49:47.924Z,10.22
2022-11-17T05:52:14.685Z,10.07
2022-11-17T05:54:41.533Z,9.95
2022-11-17T05:57:15.925Z,10.06
2022-11-17T05:59:45.805Z,10.10
2022-11-17T06:02:23.945Z,10.09
2022-11-17T06:04:51.845Z,10.09
2022-11-17T06:07:20.077Z,10.11
2022-11-17T06:09:48.811Z,10.11
2022-11-17T06:12:15.603Z,10.15
2022-11-17T06:14:42.565Z,10.06
2022-11-17T06:17:22.818Z,10.13
2022-11-17T06:20:02.802Z,10.20
2022-11-17T06:22:30.874Z,10.04
2022-11-17T06:24:58.691Z,10.02
2022-11-17T06:27:25.852Z,9.81
2022-11-17T06:29:54.601Z,10.13
2022-11-17T06:32:21.948Z,10.03
2022-11-17T06:34:55.168Z,9.82
2022-11-17T06:37:22.651Z,10.03
2022-11-17T06:39:49.854Z,10.07
2022-11-17T06:42:16.637Z,10.10
2022-11-17T06:44:46.146Z,10.15
2022-11-17T06:47:13.201Z,10.14
2022-11-17T06:49:39.809Z,10.00
2022-11-17T06:52:11.116Z,10.07
2022-11-17T06:54:38.042Z,10.00
2022-11-17T06:57:12.562Z,9.94
2022-11-17T06:59:41.950Z,9.94
2022-11-17T07:02:08.835Z,10.09
2022-11-17T07:04:36.297Z,9.92
2022-11-17T07:07:03.309Z,9.93
2022-11-17T07:09:31.245Z,9.93
2022-11-17T07:12:00.697Z,10.13
2022-11-17T07:14:27.365Z,10.11
2022-11-17T07:16:54.063Z,9.96
2022-11-17T07:19:20.626Z,9.94
2022-11-17T07:21:47.428Z,10.14
2022-11-17T07:24:14.153Z,9.93
2022-11-17T07:26:40.839Z,9.90
2022-11-17T07:29:07.510Z,10.05
2022-11-17T07:31:37.838Z,10.09
2022-11-17T07:34:04.755Z,10.00
2022-11-17T07:36:31.534Z,10.19
2022-11-17T07:38:58.359Z,10.05
2022-11-17T07:41:25.079Z,10.10
2022-11-17T07:43:51.915Z,10.15
2022-11-17T07:46:19.273Z,10.11
2022-11-17T07:48:46.257Z,10.07
2022-11-17T07:51:14.257Z,9.97
2022-11-17T07:53:41.048Z,9.87
2022-11-17T07:56:10.766Z,9.93
2022-11-17T07:58:39.646Z,9.87
2022-11-17T08:01:11.334Z,10.08
2022-11-17T08:03:38.473Z,10.00
2022-11-17T08:06:06.847Z,9.79
2022-11-17T08:08:34.620Z,9.95
2022-11-17T08:11:06.968Z,9.69
2022-11-17T08:13:34.435Z,10.09
2022-11-17T08:16:01.598Z,10.08
2022-11-17T08:18:29.173Z,10.13
2022-11-17T08:21:05.625Z,9.93
2022-11-17T08:23:32.558Z,9.77
2022-11-17T08:25:59.808Z,10.09
2022-11-17T08:28:26.750Z,10.01
2022-11-17T08:30:53.695Z,9.93
2022-11-17T08:33:23.625Z,9.83
2022-11-17T08:36:01.151Z,9.87
2022-11-17T08:38:31.207Z,9.88
2022-11-17T08:41:08.630Z,9.94
2022-11-17T08:43:35.670Z,9.94
2022-11-17T08:46:02.790Z,9.88
2022-11-17T08:48:31.623Z,9.90
2022-11-17T08:50:59.140Z,9.88
2022-11-17T08:53:25.785Z,9.94
2022-11-17T08:55:52.533Z,9.93
2022-11-17T08:58:19.392Z,9.90
2022-11-17T09:00:47.341Z,9.85
2022-11-17T09:03:14.787Z,9.93
2022-11-17T09:05:47.071Z,9.83
2022-11-17T09:11:11.728Z,9.87
2022-11-17T09:13:39.273Z,9.92
2022-11-17T09:16:09.020Z,9.96
2022-11-17T09:18:37.815Z,9.90
2022-11-17T09:21:13.721Z,9.91
2022-11-17T09:23:40.435Z,9.92
2022-11-17T09:26:09.457Z,9.92
2022-11-17T09:28:40.302Z,9.92
2022-11-17T09:31:10.115Z,9.84
2022-11-17T09:33:37.389Z,9.87
2022-11-17T09:36:09.678Z,9.84
2022-11-17T09:38:37.455Z,9.91
2022-11-17T09:41:20.333Z,9.86
2022-11-17T09:44:18.225Z,9.88
2022-11-17T09:46:50.055Z,9.86
2022-11-17T09:49:29.313Z,9.82
2022-11-17T09:52:00.316Z,9.90
2022-11-17T09:54:39.428Z,9.94
2022-11-17T09:57:15.400Z,9.92
2022-11-17T09:59:42.149Z,9.94
2022-11-17T10:02:10.594Z,9.85
2022-11-17T10:04:37.691Z,9.69
2022-11-17T10:07:09.845Z,9.94
2022-11-17T10:09:41.406Z,9.63
2022-11-17T10:12:20.051Z,9.78
2022-11-17T10:14:53.400Z,9.58
2022-11-17T10:17:26.493Z,9.66
2022-11-17T10:19:53.208Z,9.52
2022-11-17T10:22:36.282Z,9.88
2022-11-17T10:25:03.304Z,9.69
2022-11-17T10:27:34.292Z,9.67
2022-11-17T10:30:02.526Z,9.92
2022-11-17T10:32:34.551Z,9.91
2022-11-17T10:35:22.943Z,9.83
2022-11-17T10:38:08.293Z,9.94
2022-11-17T10:40:40.990Z,9.99
2022-11-17T10:43:13.879Z,10.00
2022-11-17T10:45:45.363Z,9.82
2022-11-17T10:48:30.275Z,10.07
2022-11-17T10:51:02.457Z,9.97
2022-11-17T10:53:44.848Z,10.00
2022-11-17T10:56:17.687Z,9.97
2022-11-17T10:59:12.759Z,9.96
2022-11-17T11:01:43.762Z,9.98
2022-11-17T11:04:47.737Z,9.95
2022-11-17T11:07:23.837Z,9.95
2022-11-17T11:09:56.020Z,10.00
2022-11-17T11:12:33.462Z,9.92
2022-11-17T11:15:02.266Z,9.97
2022-11-17T11:17:29.907Z,9.98
2022-11-17T11:19:57.060Z,9.97
2022-11-17T11:22:23.527Z,9.99
2022-11-17T11:25:17.900Z,9.98
2022-11-17T11:27:50.621Z,9.97
2022-11-17T11:30:19.483Z,9.97
2022-11-17T11:33:33.292Z,9.90
2022-11-17T11:36:15.004Z,9.90
2022-11-17T11:38:57.913Z,9.90
2022-11-17T11:41:51.123Z,9.91
2022-11-17T11:44:30.917Z,9.88
2022-11-17T11:47:09.713Z,9.85
2022-11-17T11:49:45.944Z,9.86
2022-11-17T11:52:20.366Z,9.82
2022-11-17T11:55:14.831Z,9.67
2022-11-17T11:57:53.897Z,9.77
2022-11-17T12:00:21.028Z,9.79
2022-11-17T12:02:58.783Z,9.72
2022-11-17T12:05:52.066Z,9.74
2022-11-17T12:08:50.858Z,9.73
2022-11-17T12:11:40.557Z,9.75
2022-11-17T12:14:07.410Z,9.65
2022-11-17T12:16:36.469Z,9.60
2022-11-17T12:19:41.305Z,9.70
2022-11-17T12:22:08.160Z,9.63
2022-11-17T12:24:41.649Z,9.69
2022-11-17T12:27:36.178Z,9.71
2022-11-17T12:30:08.018Z,9.70
2022-11-17T12:32:43.863Z,9.67
2022-11-17T12:35:26.718Z,9.68
2022-11-17T12:38:18.900Z,9.63
2022-11-17T12:40:50.931Z,9.63
2022-11-17T12:43:27.850Z,9.64
2022-11-17T12:46:25.812Z,9.59
2022-11-17T12:49:20.156Z,9.55
2022-11-17T12:51:57.757Z,9.56
2022-11-17T12:54:27.884Z,9.60
2022-11-17T12:57:12.830Z,9.66
2022-11-17T12:59:45.531Z,9.57
2022-11-17T13:02:24.237Z,9.56
2022-11-17T13:04:55.184Z,9.51
2022-11-17T13:07:25.387Z,9.56
2022-11-17T13:09:57.227Z,9.65
2022-11-17T13:12:29.090Z,9.64
2022-11-17T13:14:58.032Z,9.62
2022-11-17T13:17:31.605Z,9.62
2022-11-17T13:20:16.231Z,9.69
2022-11-17T13:22:42.815Z,9.76
2022-11-17T13:25:21.844Z,9.76
2022-11-17T13:27:56.085Z,9.74
2022-11-17T13:30:32.585Z,9.74
2022-11-17T13:33:02.317Z,9.69
2022-11-17T13:35:34.129Z,9.66
2022-11-17T13:38:21.040Z,9.66
2022-11-17T13:40:50.372Z,9.65
2022-11-17T13:43:20.566Z,9.69
2022-11-17T13:45:49.185Z,9.58
2022-11-17T13:48:36.234Z,9.51
2022-11-17T13:51:38.900Z,9.54
2022-11-17T13:54:12.353Z,9.49
2022-11-17T13:56:52.102Z,9.52
2022-11-17T13:59:18.874Z,9.51
2022-11-17T14:01:45.840Z,9.54
2022-11-17T14:04:19.545Z,9.43
2022-11-17T14:06:54.969Z,9.50
2022-11-17T14:09:22.619Z,9.48
2022-11-17T14:11:52.830Z,9.46
2022-11-17T14:14:39.504Z,9.27
2022-11-17T14:17:19.860Z,9.55
2022-11-17T14:19:47.174Z,9.44
2022-11-17T14:22:21.333Z,9.53
2022-11-17T14:24:50.771Z,9.49
2022-11-17T14:27:30.007Z,9.61
2022-11-17T14:29:56.847Z,9.38
2022-11-17T14:32:24.077Z,9.26
2022-11-17T14:34:50.897Z,9.60
2022-11-17T14:37:17.766Z,9.30
2022-11-17T14:39:44.504Z,9.28
2022-11-17T14:42:11.653Z,9.24
2022-11-17T14:44:38.732Z,9.27
2022-11-17T14:47:05.547Z,9.38
2022-11-17T14:49:32.527Z,9.26
2022-11-17T14:51:59.558Z,9.27
2022-11-17T14:54:26.622Z,9.30
2022-11-17T14:56:53.446Z,9.35
2022-11-17T14:59:22.986Z,9.29
2022-11-17T15:01:54.094Z,9.44
2022-11-17T15:04:48.959Z,9.65
2022-11-17T15:07:07.560Z,9.69
2022-11-17T15:09:34.406Z,9.41
2022-11-17T15:12:01.122Z,9.36
2022-11-17T15:14:28.080Z,9.37
2022-11-17T15:16:54.805Z,9.69
2022-11-17T15:19:21.759Z,9.57
2022-11-17T15:21:51.187Z,9.55
2022-11-17T15:24:20.594Z,9.42
2022-11-17T15:26:47.527Z,9.60
2022-11-17T15:29:17.946Z,9.58
2022-11-17T15:31:45.385Z,9.44
2022-11-17T15:34:19.959Z,9.60
2022-11-17T15:36:47.807Z,9.49
2022-11-17T15:39:15.144Z,9.40
2022-11-17T15:41:41.989Z,9.62
2022-11-17T15:44:09.011Z,9.43
2022-11-17T15:46:36.214Z,9.44
2022-11-17T15:49:04.161Z,9.54
2022-11-17T15:51:31.013Z,9.72
2022-11-17T15:53:59.484Z,9.76
2022-11-17T15:56:28.472Z,9.67
2022-11-17T15:59:01.678Z,9.72
2022-11-17T16:01:39.249Z,9.72
2022-11-17T16:04:08.285Z,9.73
2022-11-17T16:06:37.082Z,9.49
2022-11-17T16:09:04.825Z,9.53
2022-11-17T16:11:31.599Z,9.59
2022-11-17T16:13:59.695Z,9.71
2022-11-17T16:16:28.836Z,9.73
2022-11-17T16:18:55.895Z,9.73
2022-11-17T16:21:22.713Z,9.72
2022-11-17T16:23:52.732Z,9.73
2022-11-17T16:26:23.137Z,9.77
2022-11-17T16:29:01.237Z,9.71
2022-11-17T16:31:30.619Z,9.67
2022-11-17T16:33:59.766Z,9.73
2022-11-17T16:36:35.606Z,9.71
2022-11-17T16:39:03.761Z,9.69
2022-11-17T16:41:38.797Z,9.70
2022-11-17T16:44:11.772Z,9.79
2022-11-17T16:46:41.060Z,9.78
2022-11-17T16:49:10.523Z,9.77
2022-11-17T16:51:37.210Z,9.71
2022-11-17T16:54:06.247Z,9.65
2022-11-17T16:56:34.206Z,9.69
2022-11-17T16:59:01.242Z,9.68
2022-11-17T17:01:34.555Z,9.66
2022-11-17T17:04:04.156Z,9.74
2022-11-17T17:06:31.231Z,9.82
2022-11-17T17:09:00.288Z,9.78
2022-11-17T17:11:29.338Z,9.79
2022-11-17T17:14:00.219Z,9.79
2022-11-17T17:16:27.024Z,9.86
2022-11-17T17:19:01.968Z,9.86
2022-11-17T17:21:29.835Z,9.90
2022-11-17T17:23:57.195Z,9.92
2022-11-17T17:26:25.574Z,9.97
2022-11-17T17:28:55.192Z,9.92
2022-11-17T17:31:22.720Z,9.87
2022-11-17T17:33:50.916Z,9.91
2022-11-17T17:36:19.197Z,9.88
2022-11-17T17:38:48.928Z,9.94
2022-11-17T17:41:24.786Z,9.94
2022-11-17T17:43:57.046Z,9.93
2022-11-17T17:46:24.683Z,9.98
2022-11-17T17:48:51.755Z,9.91
2022-11-17T17:51:25.773Z,9.93
2022-11-17T17:53:54.233Z,9.92
2022-11-17T17:56:22.383Z,9.79
2022-11-17T17:58:51.638Z,9.91
2022-11-17T18:01:22.046Z,9.95
2022-11-17T18:03:50.231Z,9.93
2022-11-17T18:06:19.289Z,9.93
2022-11-17T18:08:46.636Z,9.95
2022-11-17T18:11:21.195Z,9.95
2022-11-17T18:13:50.478Z,9.92
2022-11-17T18:16:29.619Z,9.95
2022-11-17T18:19:01.948Z,9.88
2022-11-17T18:21:29.174Z,9.94
2022-11-17T18:23:57.020Z,9.89
2022-11-17T18:26:29.496Z,9.93
2022-11-17T18:29:03.368Z,9.93
2022-11-17T18:31:32.198Z,9.78
2022-11-17T18:34:01.998Z,9.61
2022-11-17T18:36:29.778Z,9.84
2022-11-17T18:38:58.642Z,9.76
2022-11-17T18:41:26.824Z,9.92
2022-11-17T18:43:54.803Z,9.84
2022-11-17T18:46:23.539Z,9.88
2022-11-17T18:48:54.428Z,9.89
2022-11-17T18:51:23.347Z,9.82
2022-11-17T18:53:54.982Z,9.53
2022-11-17T18:56:24.669Z,9.76
2022-11-17T18:58:51.960Z,9.89
2022-11-17T19:01:23.515Z,9.89
2022-11-17T19:03:53.560Z,9.82
2022-11-17T19:06:22.825Z,9.67
2022-11-17T19:08:50.913Z,9.83
2022-11-17T19:11:20.212Z,9.91
2022-11-17T19:13:47.777Z,9.68
2022-11-17T19:16:26.665Z,9.68
2022-11-17T19:18:56.667Z,9.69
2022-11-17T19:21:29.115Z,9.61
2022-11-17T19:23:58.418Z,9.43
2022-11-17T19:26:30.659Z,9.67
2022-11-17T19:29:02.580Z,9.48
2022-11-17T19:31:30.156Z,9.65
2022-11-17T19:33:58.119Z,9.37
2022-11-17T19:36:36.031Z,9.40
2022-11-17T19:39:03.753Z,9.37
2022-11-17T19:41:37.529Z,9.54
2022-11-17T19:44:07.412Z,9.71
2022-11-17T19:46:36.475Z,9.39
2022-11-17T19:49:07.653Z,9.29
2022-11-17T19:51:39.917Z,9.28
2022-11-17T19:54:11.681Z,9.62
2022-11-17T19:56:38.801Z,9.27
2022-11-17T19:59:29.954Z,9.40
2022-11-17T20:01:57.220Z,9.48
2022-11-17T20:04:28.761Z,9.40
2022-11-17T20:07:01.068Z,9.51
2022-11-17T20:09:30.208Z,9.50
2022-11-17T20:11:57.365Z,9.31
2022-11-17T20:14:26.728Z,9.29
2022-11-17T20:17:01.147Z,9.37
2022-11-17T20:19:30.373Z,9.12
2022-11-17T20:22:02.970Z,9.25
2022-11-17T20:24:32.173Z,9.15
2022-11-17T20:26:59.419Z,9.14
2022-11-17T20:29:31.131Z,9.21
2022-11-17T20:31:57.900Z,9.12
2022-11-17T20:34:24.569Z,9.13
2022-11-17T20:36:52.701Z,9.30
2022-11-17T20:39:26.106Z,9.19
2022-11-17T20:41:53.744Z,9.24
2022-11-17T20:44:27.250Z,9.11
2022-11-17T20:46:58.489Z,8.96
2022-11-17T20:49:27.907Z,9.30
2022-11-17T20:51:54.785Z,8.99
2022-11-17T20:54:21.839Z,9.11
2022-11-17T20:56:48.938Z,9.22
2022-11-17T20:59:20.045Z,8.98
2022-11-17T21:01:49.610Z,9.06
2022-11-17T21:04:16.388Z,8.95
2022-11-17T21:06:43.153Z,9.01
2022-11-17T21:09:10.032Z,8.90
2022-11-17T21:11:55.377Z,9.13
2022-11-17T21:14:22.489Z,8.89
2022-11-17T21:16:50.189Z,8.96
2022-11-17T21:19:17.499Z,9.04
2022-11-17T21:21:45.146Z,8.85
2022-11-17T21:24:12.826Z,8.73
2022-11-17T21:26:39.519Z,8.92
2022-11-17T21:29:07.185Z,8.99
2022-11-17T21:31:35.022Z,8.78
2022-11-17T21:34:04.118Z,8.65
2022-11-17T21:36:31.811Z,8.77
2022-11-17T21:38:59.362Z,8.99
2022-11-17T21:41:28.558Z,8.65
2022-11-17T21:43:58.713Z,8.76
2022-11-17T21:46:30.542Z,8.78
2022-11-17T21:48:58.859Z,8.88
2022-11-17T21:51:26.943Z,8.77
2022-11-17T21:53:58.527Z,8.66
2022-11-17T21:56:28.742Z,8.81
2022-11-17T21:59:02.986Z,8.61
2022-11-17T22:01:31.978Z,8.76
2022-11-17T22:03:58.564Z,8.72
2022-11-17T22:06:25.755Z,8.72
2022-11-17T22:08:54.482Z,8.68
2022-11-17T22:11:36.184Z,8.70
2022-11-17T22:14:12.290Z,8.68
2022-11-17T22:16:47.497Z,8.65
2022-11-17T22:19:16.353Z,8.67
2022-11-17T22:21:44.277Z,8.57
2022-11-17T22:24:12.327Z,8.60
2022-11-17T22:26:41.240Z,8.61
2022-11-17T22:29:11.612Z,8.56
2022-11-17T22:31:38.202Z,8.50
2022-11-17T22:34:04.953Z,8.46
2022-11-17T22:36:31.571Z,8.42
2022-11-17T22:38:58.225Z,8.33
2022-11-17T22:41:24.856Z,8.32
2022-11-17T22:43:55.724Z,8.35
2022-11-17T22:46:24.532Z,8.34
2022-11-17T22:48:54.432Z,8.42
2022-11-17T22:51:41.525Z,8.03
2022-11-17T22:54:11.944Z,8.30
2022-11-17T22:56:39.615Z,8.28
2022-11-17T22:59:06.561Z,8.25
2022-11-17T23:01:34.732Z,8.21
2022-11-17T23:04:01.810Z,8.33
2022-11-17T23:06:31.346Z,8.06
2022-11-17T23:08:58.350Z,8.12
2022-11-17T23:11:41.332Z,8.10
2022-11-17T23:14:11.294Z,7.88
2022-11-17T23:16:40.605Z,8.18
2022-11-17T23:19:13.822Z,8.00
2022-11-17T23:21:41.470Z,8.10
2022-11-17T23:24:13.026Z,8.12
2022-11-17T23:26:40.906Z,7.92
2022-11-17T23:29:09.581Z,7.84
2022-11-17T23:31:37.324Z,8.13
2022-11-17T23:34:04.247Z,8.09
2022-11-17T23:36:31.479Z,7.93
2022-11-17T23:38:58.388Z,8.00
2022-11-17T23:41:25.314Z,8.07
2022-11-17T23:43:55.427Z,8.02
2022-11-17T23:46:25.865Z,8.15
2022-11-17T23:48:54.249Z,7.79
2022-11-17T23:51:25.711Z,8.09
2022-11-17T23:53:53.415Z,7.98
2022-11-17T23:56:21.686Z,7.83
2022-11-17T23:58:51.973Z,7.88
